sensor_id;sensor_type;location;lat;lon;timestamp;P1;durP1;ratioP1;P2;durP2;ratioP2
75993;SDS011;64680;53.800;9.988;2023-07-31T00:02:16;7.22;;;3.40;;
75993;SDS011;64680;53.800;9.988;2023-07-31T00:04:41;4.97;;;2.28;;
75993;SDS011;64680;53.800;9.988;2023-07-31T00:07:07;5.95;;;2.25;;
75993;SDS011;64680;53.800;9.988;2023-07-31T00:09:33;7.28;;;2.47;;
75993;SDS011;64680;53.800;9.988;2023-07-31T00:11:58;7.45;;;2.78;;
75993;SDS011;64680;53.800;9.988;2023-07-31T00:14:24;6.28;;;2.45;;
75993;SDS011;64680;53.800;9.988;2023-07-31T00:16:50;6.55;;;3.05;;
75993;SDS011;64680;53.800;9.988;2023-07-31T00:19:15;5.40;;;2.13;;
75993;SDS011;64680;53.800;9.988;2023-07-31T00:21:41;5.63;;;2.47;;
75993;SDS011;64680;53.800;9.988;2023-07-31T00:24:06;5.03;;;2.17;;
75993;SDS011;64680;53.800;9.988;2023-07-31T00:26:32;11.05;;;2.90;;
75993;SDS011;64680;53.800;9.988;2023-07-31T00:28:58;4.00;;;1.92;;
75993;SDS011;64680;53.800;9.988;2023-07-31T00:31:23;3.53;;;2.03;;
75993;SDS011;64680;53.800;9.988;2023-07-31T00:33:49;5.50;;;1.60;;
75993;SDS011;64680;53.800;9.988;2023-07-31T00:36:14;6.13;;;2.30;;
75993;SDS011;64680;53.800;9.988;2023-07-31T00:38:40;3.45;;;1.75;;
75993;SDS011;64680;53.800;9.988;2023-07-31T00:41:05;5.07;;;2.30;;
75993;SDS011;64680;53.800;9.988;2023-07-31T00:43:31;5.43;;;2.05;;
75993;SDS011;64680;53.800;9.988;2023-07-31T00:45:56;6.18;;;2.50;;
75993;SDS011;64680;53.800;9.988;2023-07-31T00:48:22;5.43;;;2.70;;
75993;SDS011;64680;53.800;9.988;2023-07-31T00:50:48;5.75;;;1.92;;
75993;SDS011;64680;53.800;9.988;2023-07-31T00:53:15;7.53;;;2.30;;
75993;SDS011;64680;53.800;9.988;2023-07-31T00:55:40;5.95;;;2.03;;
75993;SDS011;64680;53.800;9.988;2023-07-31T00:58:07;7.03;;;2.17;;
75993;SDS011;64680;53.800;9.988;2023-07-31T01:00:32;8.63;;;2.75;;
75993;SDS011;64680;53.800;9.988;2023-07-31T01:02:58;4.72;;;1.92;;
75993;SDS011;64680;53.800;9.988;2023-07-31T01:05:36;5.70;;;2.15;;
75993;SDS011;64680;53.800;9.988;2023-07-31T01:10:57;5.97;;;2.42;;
75993;SDS011;64680;53.800;9.988;2023-07-31T01:13:30;5.05;;;2.70;;
75993;SDS011;64680;53.800;9.988;2023-07-31T01:15:56;5.45;;;1.83;;
75993;SDS011;64680;53.800;9.988;2023-07-31T01:18:21;13.18;;;1.92;;
75993;SDS011;64680;53.800;9.988;2023-07-31T01:20:48;8.13;;;2.13;;
75993;SDS011;64680;53.800;9.988;2023-07-31T01:26:11;12.55;;;2.58;;
75993;SDS011;64680;53.800;9.988;2023-07-31T01:31:32;4.70;;;1.80;;
75993;SDS011;64680;53.800;9.988;2023-07-31T01:34:00;7.25;;;2.13;;
75993;SDS011;64680;53.800;9.988;2023-07-31T01:36:26;9.23;;;2.20;;
75993;SDS011;64680;53.800;9.988;2023-07-31T01:38:57;5.60;;;1.98;;
75993;SDS011;64680;53.800;9.988;2023-07-31T01:41:27;6.60;;;1.90;;
75993;SDS011;64680;53.800;9.988;2023-07-31T01:43:52;8.07;;;2.28;;
75993;SDS011;64680;53.800;9.988;2023-07-31T01:46:18;5.75;;;2.17;;
75993;SDS011;64680;53.800;9.988;2023-07-31T01:48:44;5.50;;;1.80;;
75993;SDS011;64680;53.800;9.988;2023-07-31T01:51:09;4.35;;;1.83;;
75993;SDS011;64680;53.800;9.988;2023-07-31T01:53:35;7.07;;;2.35;;
75993;SDS011;64680;53.800;9.988;2023-07-31T01:56:00;7.22;;;2.38;;
75993;SDS011;64680;53.800;9.988;2023-07-31T01:58:26;6.82;;;1.70;;
75993;SDS011;64680;53.800;9.988;2023-07-31T02:00:52;7.25;;;2.33;;
75993;SDS011;64680;53.800;9.988;2023-07-31T02:03:17;8.18;;;2.20;;
75993;SDS011;64680;53.800;9.988;2023-07-31T02:05:44;6.28;;;2.33;;
75993;SDS011;64680;53.800;9.988;2023-07-31T02:08:10;9.30;;;2.75;;
75993;SDS011;64680;53.800;9.988;2023-07-31T02:10:36;7.78;;;2.72;;
75993;SDS011;64680;53.800;9.988;2023-07-31T02:13:01;8.50;;;2.63;;
75993;SDS011;64680;53.800;9.988;2023-07-31T02:15:29;8.65;;;2.63;;
75993;SDS011;64680;53.800;9.988;2023-07-31T02:17:55;12.70;;;2.70;;
75993;SDS011;64680;53.800;9.988;2023-07-31T02:20:20;9.13;;;2.75;;
75993;SDS011;64680;53.800;9.988;2023-07-31T02:22:46;7.85;;;2.70;;
75993;SDS011;64680;53.800;9.988;2023-07-31T02:25:11;4.05;;;2.20;;
75993;SDS011;64680;53.800;9.988;2023-07-31T02:27:37;8.13;;;3.35;;
75993;SDS011;64680;53.800;9.988;2023-07-31T02:30:02;10.77;;;3.30;;
75993;SDS011;64680;53.800;9.988;2023-07-31T02:32:28;6.35;;;2.50;;
75993;SDS011;64680;53.800;9.988;2023-07-31T02:34:54;6.07;;;2.50;;
75993;SDS011;64680;53.800;9.988;2023-07-31T02:37:19;10.30;;;3.00;;
75993;SDS011;64680;53.800;9.988;2023-07-31T02:39:45;9.55;;;3.05;;
75993;SDS011;64680;53.800;9.988;2023-07-31T02:42:11;8.68;;;3.13;;
75993;SDS011;64680;53.800;9.988;2023-07-31T02:44:37;8.00;;;2.72;;
75993;SDS011;64680;53.800;9.988;2023-07-31T02:47:03;10.75;;;3.40;;
75993;SDS011;64680;53.800;9.988;2023-07-31T02:49:28;8.02;;;2.85;;
75993;SDS011;64680;53.800;9.988;2023-07-31T02:51:54;4.80;;;2.50;;
75993;SDS011;64680;53.800;9.988;2023-07-31T02:54:19;9.85;;;3.28;;
75993;SDS011;64680;53.800;9.988;2023-07-31T02:56:46;8.43;;;3.28;;
75993;SDS011;64680;53.800;9.988;2023-07-31T02:59:15;5.68;;;2.85;;
75993;SDS011;64680;53.800;9.988;2023-07-31T03:01:40;8.88;;;3.40;;
75993;SDS011;64680;53.800;9.988;2023-07-31T03:04:07;8.10;;;2.80;;
75993;SDS011;64680;53.800;9.988;2023-07-31T03:06:32;10.40;;;2.88;;
75993;SDS011;64680;53.800;9.988;2023-07-31T03:08:58;4.82;;;2.70;;
75993;SDS011;64680;53.800;9.988;2023-07-31T03:11:26;7.13;;;3.10;;
75993;SDS011;64680;53.800;9.988;2023-07-31T03:13:51;5.32;;;2.85;;
75993;SDS011;64680;53.800;9.988;2023-07-31T03:16:17;8.38;;;3.40;;
75993;SDS011;64680;53.800;9.988;2023-07-31T03:18:42;8.07;;;3.45;;
75993;SDS011;64680;53.800;9.988;2023-07-31T03:21:08;12.85;;;3.50;;
75993;SDS011;64680;53.800;9.988;2023-07-31T03:23:34;6.60;;;2.60;;
75993;SDS011;64680;53.800;9.988;2023-07-31T03:26:00;5.18;;;2.97;;
75993;SDS011;64680;53.800;9.988;2023-07-31T03:28:28;7.85;;;3.03;;
75993;SDS011;64680;53.800;9.988;2023-07-31T03:30:54;7.15;;;3.60;;
75993;SDS011;64680;53.800;9.988;2023-07-31T03:33:20;6.30;;;3.13;;
75993;SDS011;64680;53.800;9.988;2023-07-31T03:35:45;10.60;;;3.75;;
75993;SDS011;64680;53.800;9.988;2023-07-31T03:38:11;7.45;;;3.03;;
75993;SDS011;64680;53.800;9.988;2023-07-31T03:40:36;12.63;;;4.25;;
75993;SDS011;64680;53.800;9.988;2023-07-31T03:43:02;7.63;;;3.42;;
75993;SDS011;64680;53.800;9.988;2023-07-31T03:45:28;6.78;;;2.97;;
75993;SDS011;64680;53.800;9.988;2023-07-31T03:47:53;8.57;;;2.80;;
75993;SDS011;64680;53.800;9.988;2023-07-31T03:50:19;8.70;;;3.20;;
75993;SDS011;64680;53.800;9.988;2023-07-31T03:52:45;7.35;;;3.35;;
75993;SDS011;64680;53.800;9.988;2023-07-31T03:55:11;7.95;;;3.92;;
75993;SDS011;64680;53.800;9.988;2023-07-31T03:57:37;6.82;;;3.10;;
75993;SDS011;64680;53.800;9.988;2023-07-31T04:00:02;7.97;;;3.42;;
75993;SDS011;64680;53.800;9.988;2023-07-31T04:02:28;7.25;;;3.45;;
75993;SDS011;64680;53.800;9.988;2023-07-31T04:04:54;8.00;;;3.78;;
75993;SDS011;64680;53.800;9.988;2023-07-31T04:07:19;9.57;;;4.40;;
75993;SDS011;64680;53.800;9.988;2023-07-31T04:09:45;6.90;;;3.97;;
75993;SDS011;64680;53.800;9.988;2023-07-31T04:12:11;8.00;;;3.08;;
75993;SDS011;64680;53.800;9.988;2023-07-31T04:14:36;9.27;;;3.53;;
75993;SDS011;64680;53.800;9.988;2023-07-31T04:17:02;6.65;;;3.25;;
75993;SDS011;64680;53.800;9.988;2023-07-31T04:19:28;6.50;;;2.88;;
75993;SDS011;64680;53.800;9.988;2023-07-31T04:21:53;7.40;;;3.40;;
75993;SDS011;64680;53.800;9.988;2023-07-31T04:24:19;7.45;;;2.90;;
75993;SDS011;64680;53.800;9.988;2023-07-31T04:26:52;7.40;;;3.40;;
75993;SDS011;64680;53.800;9.988;2023-07-31T04:29:18;8.20;;;3.55;;
75993;SDS011;64680;53.800;9.988;2023-07-31T04:31:45;9.68;;;3.78;;
75993;SDS011;64680;53.800;9.988;2023-07-31T04:34:11;7.05;;;3.70;;
75993;SDS011;64680;53.800;9.988;2023-07-31T04:36:37;8.02;;;4.05;;
75993;SDS011;64680;53.800;9.988;2023-07-31T04:39:03;7.13;;;3.65;;
75993;SDS011;64680;53.800;9.988;2023-07-31T04:41:29;7.57;;;4.30;;
75993;SDS011;64680;53.800;9.988;2023-07-31T04:43:54;7.10;;;3.17;;
75993;SDS011;64680;53.800;9.988;2023-07-31T04:46:20;7.35;;;4.10;;
75993;SDS011;64680;53.800;9.988;2023-07-31T04:48:45;8.20;;;3.65;;
75993;SDS011;64680;53.800;9.988;2023-07-31T04:51:11;7.85;;;4.18;;
75993;SDS011;64680;53.800;9.988;2023-07-31T04:53:37;8.65;;;4.40;;
75993;SDS011;64680;53.800;9.988;2023-07-31T04:56:02;8.30;;;4.03;;
75993;SDS011;64680;53.800;9.988;2023-07-31T04:58:28;10.65;;;4.20;;
75993;SDS011;64680;53.800;9.988;2023-07-31T05:00:54;7.28;;;4.45;;
75993;SDS011;64680;53.800;9.988;2023-07-31T05:03:19;9.50;;;4.80;;
75993;SDS011;64680;53.800;9.988;2023-07-31T05:05:45;8.18;;;4.95;;
75993;SDS011;64680;53.800;9.988;2023-07-31T05:08:11;6.88;;;4.15;;
75993;SDS011;64680;53.800;9.988;2023-07-31T05:10:36;6.82;;;4.15;;
75993;SDS011;64680;53.800;9.988;2023-07-31T05:13:02;6.40;;;3.83;;
75993;SDS011;64680;53.800;9.988;2023-07-31T05:15:28;6.75;;;4.65;;
75993;SDS011;64680;53.800;9.988;2023-07-31T05:17:54;4.97;;;3.78;;
75993;SDS011;64680;53.800;9.988;2023-07-31T05:20:20;6.57;;;4.45;;
75993;SDS011;64680;53.800;9.988;2023-07-31T05:22:46;6.35;;;5.03;;
75993;SDS011;64680;53.800;9.988;2023-07-31T05:25:12;9.13;;;5.00;;
75993;SDS011;64680;53.800;9.988;2023-07-31T05:27:37;8.80;;;4.40;;
75993;SDS011;64680;53.800;9.988;2023-07-31T05:30:04;5.43;;;3.42;;
75993;SDS011;64680;53.800;9.988;2023-07-31T05:32:30;7.38;;;4.32;;
75993;SDS011;64680;53.800;9.988;2023-07-31T05:34:56;5.50;;;3.88;;
75993;SDS011;64680;53.800;9.988;2023-07-31T05:37:21;5.60;;;3.67;;
75993;SDS011;64680;53.800;9.988;2023-07-31T05:39:47;5.45;;;3.75;;
75993;SDS011;64680;53.800;9.988;2023-07-31T05:42:13;5.95;;;3.75;;
75993;SDS011;64680;53.800;9.988;2023-07-31T05:44:38;5.53;;;3.78;;
75993;SDS011;64680;53.800;9.988;2023-07-31T05:47:04;5.25;;;3.17;;
75993;SDS011;64680;53.800;9.988;2023-07-31T05:49:30;4.75;;;3.78;;
75993;SDS011;64680;53.800;9.988;2023-07-31T05:51:55;4.80;;;3.50;;
75993;SDS011;64680;53.800;9.988;2023-07-31T05:54:21;4.90;;;3.58;;
75993;SDS011;64680;53.800;9.988;2023-07-31T05:56:47;6.20;;;4.30;;
75993;SDS011;64680;53.800;9.988;2023-07-31T05:59:12;6.43;;;3.70;;
75993;SDS011;64680;53.800;9.988;2023-07-31T06:01:38;5.18;;;3.58;;
75993;SDS011;64680;53.800;9.988;2023-07-31T06:04:04;3.50;;;2.67;;
75993;SDS011;64680;53.800;9.988;2023-07-31T06:06:30;4.53;;;3.75;;
75993;SDS011;64680;53.800;9.988;2023-07-31T06:08:55;5.22;;;3.63;;
75993;SDS011;64680;53.800;9.988;2023-07-31T06:11:21;4.10;;;3.30;;
75993;SDS011;64680;53.800;9.988;2023-07-31T06:13:48;5.95;;;4.28;;
75993;SDS011;64680;53.800;9.988;2023-07-31T06:16:14;4.80;;;3.83;;
75993;SDS011;64680;53.800;9.988;2023-07-31T06:18:40;4.30;;;2.97;;
75993;SDS011;64680;53.800;9.988;2023-07-31T06:21:06;3.67;;;3.08;;
75993;SDS011;64680;53.800;9.988;2023-07-31T06:23:31;4.07;;;2.88;;
75993;SDS011;64680;53.800;9.988;2023-07-31T06:25:57;4.13;;;2.90;;
75993;SDS011;64680;53.800;9.988;2023-07-31T06:28:29;3.30;;;2.70;;
75993;SDS011;64680;53.800;9.988;2023-07-31T06:30:56;5.13;;;3.63;;
75993;SDS011;64680;53.800;9.988;2023-07-31T06:33:22;3.60;;;3.00;;
75993;SDS011;64680;53.800;9.988;2023-07-31T06:35:48;3.05;;;2.75;;
75993;SDS011;64680;53.800;9.988;2023-07-31T06:38:13;4.18;;;2.60;;
75993;SDS011;64680;53.800;9.988;2023-07-31T06:40:39;4.35;;;2.67;;
75993;SDS011;64680;53.800;9.988;2023-07-31T06:43:05;3.33;;;3.00;;
75993;SDS011;64680;53.800;9.988;2023-07-31T06:48:02;3.20;;;2.60;;
75993;SDS011;64680;53.800;9.988;2023-07-31T06:50:28;3.22;;;2.33;;
75993;SDS011;64680;53.800;9.988;2023-07-31T06:52:56;3.38;;;2.70;;
75993;SDS011;64680;53.800;9.988;2023-07-31T06:55:22;3.13;;;2.47;;
75993;SDS011;64680;53.800;9.988;2023-07-31T06:57:49;3.10;;;2.30;;
75993;SDS011;64680;53.800;9.988;2023-07-31T07:00:16;3.53;;;2.15;;
75993;SDS011;64680;53.800;9.988;2023-07-31T07:02:42;2.55;;;2.00;;
75993;SDS011;64680;53.800;9.988;2023-07-31T07:05:08;2.45;;;1.90;;
75993;SDS011;64680;53.800;9.988;2023-07-31T07:07:34;2.22;;;1.90;;
75993;SDS011;64680;53.800;9.988;2023-07-31T07:10:00;1.90;;;1.55;;
75993;SDS011;64680;53.800;9.988;2023-07-31T07:12:28;3.63;;;2.20;;
75993;SDS011;64680;53.800;9.988;2023-07-31T07:14:58;2.70;;;1.83;;
75993;SDS011;64680;53.800;9.988;2023-07-31T07:17:25;2.95;;;2.00;;
75993;SDS011;64680;53.800;9.988;2023-07-31T07:19:51;2.42;;;2.03;;
75993;SDS011;64680;53.800;9.988;2023-07-31T07:22:17;3.75;;;2.10;;
75993;SDS011;64680;53.800;9.988;2023-07-31T07:24:43;2.42;;;2.10;;
75993;SDS011;64680;53.800;9.988;2023-07-31T07:27:09;3.20;;;2.45;;
75993;SDS011;64680;53.800;9.988;2023-07-31T07:29:34;3.22;;;2.15;;
75993;SDS011;64680;53.800;9.988;2023-07-31T07:32:00;2.30;;;1.90;;
75993;SDS011;64680;53.800;9.988;2023-07-31T07:34:26;2.72;;;2.13;;
75993;SDS011;64680;53.800;9.988;2023-07-31T07:36:53;3.20;;;2.22;;
75993;SDS011;64680;53.800;9.988;2023-07-31T07:39:22;3.30;;;2.35;;
75993;SDS011;64680;53.800;9.988;2023-07-31T07:41:47;3.42;;;2.47;;
75993;SDS011;64680;53.800;9.988;2023-07-31T07:44:13;2.88;;;2.58;;
75993;SDS011;64680;53.800;9.988;2023-07-31T07:46:39;3.47;;;2.63;;
75993;SDS011;64680;53.800;9.988;2023-07-31T07:49:05;2.70;;;2.28;;
75993;SDS011;64680;53.800;9.988;2023-07-31T07:51:31;4.50;;;3.15;;
75993;SDS011;64680;53.800;9.988;2023-07-31T07:53:57;2.53;;;2.05;;
75993;SDS011;64680;53.800;9.988;2023-07-31T07:56:23;2.92;;;2.25;;
75993;SDS011;64680;53.800;9.988;2023-07-31T07:58:50;3.20;;;2.30;;
75993;SDS011;64680;53.800;9.988;2023-07-31T08:01:16;3.00;;;2.40;;
75993;SDS011;64680;53.800;9.988;2023-07-31T08:03:41;3.63;;;3.05;;
75993;SDS011;64680;53.800;9.988;2023-07-31T08:06:07;3.33;;;2.88;;
75993;SDS011;64680;53.800;9.988;2023-07-31T08:08:37;2.95;;;1.98;;
75993;SDS011;64680;53.800;9.988;2023-07-31T08:11:03;3.53;;;1.95;;
75993;SDS011;64680;53.800;9.988;2023-07-31T08:13:29;3.38;;;2.67;;
75993;SDS011;64680;53.800;9.988;2023-07-31T08:15:55;3.17;;;2.42;;
75993;SDS011;64680;53.800;9.988;2023-07-31T08:18:20;3.55;;;2.47;;
75993;SDS011;64680;53.800;9.988;2023-07-31T08:20:46;3.08;;;2.40;;
75993;SDS011;64680;53.800;9.988;2023-07-31T08:23:12;3.60;;;2.70;;
75993;SDS011;64680;53.800;9.988;2023-07-31T08:25:38;4.00;;;2.70;;
75993;SDS011;64680;53.800;9.988;2023-07-31T08:28:04;3.35;;;2.65;;
75993;SDS011;64680;53.800;9.988;2023-07-31T08:30:30;2.88;;;2.45;;
75993;SDS011;64680;53.800;9.988;2023-07-31T08:32:56;2.47;;;2.25;;
75993;SDS011;64680;53.800;9.988;2023-07-31T08:35:24;3.15;;;2.65;;
75993;SDS011;64680;53.800;9.988;2023-07-31T08:37:51;2.53;;;2.30;;
75993;SDS011;64680;53.800;9.988;2023-07-31T08:40:17;3.30;;;2.65;;
75993;SDS011;64680;53.800;9.988;2023-07-31T08:42:43;2.92;;;2.40;;
75993;SDS011;64680;53.800;9.988;2023-07-31T08:45:14;2.35;;;1.90;;
75993;SDS011;64680;53.800;9.988;2023-07-31T08:47:42;3.15;;;2.60;;
75993;SDS011;64680;53.800;9.988;2023-07-31T08:50:13;3.47;;;2.30;;
75993;SDS011;64680;53.800;9.988;2023-07-31T08:52:40;3.72;;;2.50;;
75993;SDS011;64680;53.800;9.988;2023-07-31T08:55:06;2.78;;;2.33;;
75993;SDS011;64680;53.800;9.988;2023-07-31T08:57:33;2.75;;;2.38;;
75993;SDS011;64680;53.800;9.988;2023-07-31T09:00:00;4.50;;;2.20;;
75993;SDS011;64680;53.800;9.988;2023-07-31T09:02:29;2.80;;;2.33;;
75993;SDS011;64680;53.800;9.988;2023-07-31T09:05:16;2.90;;;2.58;;
75993;SDS011;64680;53.800;9.988;2023-07-31T09:07:42;3.63;;;2.90;;
75993;SDS011;64680;53.800;9.988;2023-07-31T09:10:13;2.20;;;1.83;;
75993;SDS011;64680;53.800;9.988;2023-07-31T09:12:39;2.10;;;1.70;;
75993;SDS011;64680;53.800;9.988;2023-07-31T09:15:05;2.58;;;2.28;;
75993;SDS011;64680;53.800;9.988;2023-07-31T09:17:32;1.63;;;1.48;;
75993;SDS011;64680;53.800;9.988;2023-07-31T09:20:20;2.33;;;1.50;;
75993;SDS011;64680;53.800;9.988;2023-07-31T09:22:47;1.83;;;1.30;;
75993;SDS011;64680;53.800;9.988;2023-07-31T09:27:56;3.15;;;1.30;;
75993;SDS011;64680;53.800;9.988;2023-07-31T09:30:23;1.40;;;1.27;;
75993;SDS011;64680;53.800;9.988;2023-07-31T09:32:50;1.75;;;1.15;;
75993;SDS011;64680;53.800;9.988;2023-07-31T09:38:09;1.88;;;1.17;;
75993;SDS011;64680;53.800;9.988;2023-07-31T09:40:40;1.88;;;1.17;;
75993;SDS011;64680;53.800;9.988;2023-07-31T09:43:08;2.55;;;0.98;;
75993;SDS011;64680;53.800;9.988;2023-07-31T09:45:38;1.20;;;0.98;;
75993;SDS011;64680;53.800;9.988;2023-07-31T09:48:07;1.42;;;0.98;;
75993;SDS011;64680;53.800;9.988;2023-07-31T09:50:36;1.60;;;1.00;;
75993;SDS011;64680;53.800;9.988;2023-07-31T09:53:03;2.47;;;0.93;;
75993;SDS011;64680;53.800;9.988;2023-07-31T09:55:29;1.05;;;0.82;;
75993;SDS011;64680;53.800;9.988;2023-07-31T09:57:57;1.77;;;0.80;;
75993;SDS011;64680;53.800;9.988;2023-07-31T10:00:23;1.05;;;0.60;;
75993;SDS011;64680;53.800;9.988;2023-07-31T10:02:53;1.40;;;0.68;;
75993;SDS011;64680;53.800;9.988;2023-07-31T10:05:23;1.10;;;0.63;;
75993;SDS011;64680;53.800;9.988;2023-07-31T10:07:55;1.83;;;0.80;;
75993;SDS011;64680;53.800;9.988;2023-07-31T10:10:22;1.23;;;0.98;;
75993;SDS011;64680;53.800;9.988;2023-07-31T10:12:49;1.30;;;0.85;;
75993;SDS011;64680;53.800;9.988;2023-07-31T10:15:15;1.20;;;0.75;;
75993;SDS011;64680;53.800;9.988;2023-07-31T10:17:41;1.55;;;0.98;;
75993;SDS011;64680;53.800;9.988;2023-07-31T10:20:07;2.38;;;1.10;;
75993;SDS011;64680;53.800;9.988;2023-07-31T10:22:34;1.60;;;0.82;;
75993;SDS011;64680;53.800;9.988;2023-07-31T10:25:00;1.33;;;0.70;;
75993;SDS011;64680;53.800;9.988;2023-07-31T10:27:26;1.17;;;1.08;;
75993;SDS011;64680;53.800;9.988;2023-07-31T10:29:56;1.45;;;0.70;;
75993;SDS011;64680;53.800;9.988;2023-07-31T10:32:23;1.45;;;0.93;;
75993;SDS011;64680;53.800;9.988;2023-07-31T10:34:50;1.00;;;0.70;;
75993;SDS011;64680;53.800;9.988;2023-07-31T10:40:05;1.42;;;0.50;;
75993;SDS011;64680;53.800;9.988;2023-07-31T10:42:36;1.38;;;0.60;;
75993;SDS011;64680;53.800;9.988;2023-07-31T10:45:10;1.02;;;0.68;;
75993;SDS011;64680;53.800;9.988;2023-07-31T10:47:37;1.17;;;0.80;;
75993;SDS011;64680;53.800;9.988;2023-07-31T10:50:19;0.60;;;0.40;;
75993;SDS011;64680;53.800;9.988;2023-07-31T10:52:52;1.10;;;0.68;;
75993;SDS011;64680;53.800;9.988;2023-07-31T10:55:33;0.60;;;0.40;;
75993;SDS011;64680;53.800;9.988;2023-07-31T10:58:08;1.10;;;0.60;;
75993;SDS011;64680;53.800;9.988;2023-07-31T11:00:42;2.55;;;0.65;;
75993;SDS011;64680;53.800;9.988;2023-07-31T11:05:50;1.20;;;0.73;;
75993;SDS011;64680;53.800;9.988;2023-07-31T11:08:29;1.30;;;0.63;;
75993;SDS011;64680;53.800;9.988;2023-07-31T11:16:18;1.38;;;0.55;;
75993;SDS011;64680;53.800;9.988;2023-07-31T11:18:45;1.13;;;0.60;;
75993;SDS011;64680;53.800;9.988;2023-07-31T11:21:13;1.00;;;0.52;;
75993;SDS011;64680;53.800;9.988;2023-07-31T11:23:39;0.57;;;0.30;;
75993;SDS011;64680;53.800;9.988;2023-07-31T11:26:06;2.03;;;0.40;;
75993;SDS011;64680;53.800;9.988;2023-07-31T11:28:33;0.65;;;0.30;;
75993;SDS011;64680;53.800;9.988;2023-07-31T11:31:00;0.77;;;0.30;;
75993;SDS011;64680;53.800;9.988;2023-07-31T11:33:26;0.80;;;0.38;;
75993;SDS011;64680;53.800;9.988;2023-07-31T11:35:51;3.22;;;0.50;;
75993;SDS011;64680;53.800;9.988;2023-07-31T11:38:27;1.05;;;0.40;;
75993;SDS011;64680;53.800;9.988;2023-07-31T11:40:54;1.40;;;0.20;;
75993;SDS011;64680;53.800;9.988;2023-07-31T11:43:21;1.10;;;0.50;;
75993;SDS011;64680;53.800;9.988;2023-07-31T11:45:49;0.60;;;0.20;;
75993;SDS011;64680;53.800;9.988;2023-07-31T11:48:26;0.68;;;0.40;;
75993;SDS011;64680;53.800;9.988;2023-07-31T11:50:54;2.03;;;0.50;;
75993;SDS011;64680;53.800;9.988;2023-07-31T11:56:07;0.82;;;0.40;;
75993;SDS011;64680;53.800;9.988;2023-07-31T11:58:36;0.57;;;0.40;;
75993;SDS011;64680;53.800;9.988;2023-07-31T12:01:03;1.30;;;0.57;;
75993;SDS011;64680;53.800;9.988;2023-07-31T12:03:29;0.90;;;0.35;;
75993;SDS011;64680;53.800;9.988;2023-07-31T12:05:56;1.52;;;0.40;;
75993;SDS011;64680;53.800;9.988;2023-07-31T12:08:23;1.20;;;0.47;;
75993;SDS011;64680;53.800;9.988;2023-07-31T12:10:53;2.17;;;0.40;;
75993;SDS011;64680;53.800;9.988;2023-07-31T12:13:20;1.63;;;0.35;;
75993;SDS011;64680;53.800;9.988;2023-07-31T12:15:53;0.98;;;0.52;;
75993;SDS011;64680;53.800;9.988;2023-07-31T12:18:25;0.77;;;0.28;;
75993;SDS011;64680;53.800;9.988;2023-07-31T12:20:58;1.08;;;0.30;;
75993;SDS011;64680;53.800;9.988;2023-07-31T12:23:25;1.33;;;0.45;;
75993;SDS011;64680;53.800;9.988;2023-07-31T12:28:30;0.47;;;0.20;;
75993;SDS011;64680;53.800;9.988;2023-07-31T12:30:59;1.45;;;0.40;;
75993;SDS011;64680;53.800;9.988;2023-07-31T12:33:34;0.95;;;0.65;;
75993;SDS011;64680;53.800;9.988;2023-07-31T12:36:02;0.63;;;0.25;;
75993;SDS011;64680;53.800;9.988;2023-07-31T12:38:29;1.10;;;0.20;;
75993;SDS011;64680;53.800;9.988;2023-07-31T12:40:55;2.05;;;0.40;;
75993;SDS011;64680;53.800;9.988;2023-07-31T12:43:20;1.25;;;0.50;;
75993;SDS011;64680;53.800;9.988;2023-07-31T12:45:46;1.52;;;0.40;;
75993;SDS011;64680;53.800;9.988;2023-07-31T12:48:12;1.70;;;0.52;;
75993;SDS011;64680;53.800;9.988;2023-07-31T12:50:38;0.77;;;0.75;;
75993;SDS011;64680;53.800;9.988;2023-07-31T12:53:04;0.93;;;0.50;;
75993;SDS011;64680;53.800;9.988;2023-07-31T12:55:30;0.90;;;0.40;;
75993;SDS011;64680;53.800;9.988;2023-07-31T12:57:57;0.63;;;0.43;;
75993;SDS011;64680;53.800;9.988;2023-07-31T13:00:23;1.75;;;0.43;;
75993;SDS011;64680;53.800;9.988;2023-07-31T13:02:49;0.63;;;0.30;;
75993;SDS011;64680;53.800;9.988;2023-07-31T13:05:14;1.35;;;0.50;;
75993;SDS011;64680;53.800;9.988;2023-07-31T13:07:40;1.02;;;0.38;;
75993;SDS011;64680;53.800;9.988;2023-07-31T13:10:06;0.93;;;0.28;;
75993;SDS011;64680;53.800;9.988;2023-07-31T13:12:32;2.53;;;0.50;;
75993;SDS011;64680;53.800;9.988;2023-07-31T13:14:58;0.80;;;0.40;;
75993;SDS011;64680;53.800;9.988;2023-07-31T13:17:24;1.52;;;0.40;;
75993;SDS011;64680;53.800;9.988;2023-07-31T13:19:49;1.17;;;0.30;;
75993;SDS011;64680;53.800;9.988;2023-07-31T13:22:15;2.35;;;0.50;;
75993;SDS011;64680;53.800;9.988;2023-07-31T13:24:41;1.08;;;0.40;;
75993;SDS011;64680;53.800;9.988;2023-07-31T13:27:06;1.00;;;0.40;;
75993;SDS011;64680;53.800;9.988;2023-07-31T13:29:32;1.00;;;0.22;;
75993;SDS011;64680;53.800;9.988;2023-07-31T13:31:57;0.77;;;0.50;;
75993;SDS011;64680;53.800;9.988;2023-07-31T13:34:23;2.30;;;0.60;;
75993;SDS011;64680;53.800;9.988;2023-07-31T13:36:49;3.15;;;0.65;;
75993;SDS011;64680;53.800;9.988;2023-07-31T13:39:14;1.02;;;0.50;;
75993;SDS011;64680;53.800;9.988;2023-07-31T13:41:40;0.63;;;0.35;;
75993;SDS011;64680;53.800;9.988;2023-07-31T13:44:06;1.05;;;0.45;;
75993;SDS011;64680;53.800;9.988;2023-07-31T13:46:32;0.95;;;0.65;;
75993;SDS011;64680;53.800;9.988;2023-07-31T13:48:58;0.80;;;0.30;;
75993;SDS011;64680;53.800;9.988;2023-07-31T13:51:24;0.70;;;0.40;;
75993;SDS011;64680;53.800;9.988;2023-07-31T13:53:50;0.90;;;0.40;;
75993;SDS011;64680;53.800;9.988;2023-07-31T13:56:16;1.23;;;0.70;;
75993;SDS011;64680;53.800;9.988;2023-07-31T13:58:42;1.02;;;0.32;;
75993;SDS011;64680;53.800;9.988;2023-07-31T14:01:07;1.27;;;0.63;;
75993;SDS011;64680;53.800;9.988;2023-07-31T14:03:33;1.60;;;1.05;;
75993;SDS011;64680;53.800;9.988;2023-07-31T14:05:59;1.10;;;0.50;;
75993;SDS011;64680;53.800;9.988;2023-07-31T14:08:25;1.33;;;0.70;;
75993;SDS011;64680;53.800;9.988;2023-07-31T14:10:50;0.85;;;0.30;;
75993;SDS011;64680;53.800;9.988;2023-07-31T14:13:16;1.02;;;0.93;;
75993;SDS011;64680;53.800;9.988;2023-07-31T14:15:42;0.88;;;0.30;;
75993;SDS011;64680;53.800;9.988;2023-07-31T14:18:08;1.33;;;0.60;;
75993;SDS011;64680;53.800;9.988;2023-07-31T14:20:34;1.73;;;0.38;;
75993;SDS011;64680;53.800;9.988;2023-07-31T14:23:00;0.93;;;0.50;;
75993;SDS011;64680;53.800;9.988;2023-07-31T14:25:26;1.17;;;0.40;;
75993;SDS011;64680;53.800;9.988;2023-07-31T14:27:51;1.00;;;0.30;;
75993;SDS011;64680;53.800;9.988;2023-07-31T14:30:17;0.73;;;0.20;;
75993;SDS011;64680;53.800;9.988;2023-07-31T14:32:43;1.30;;;0.50;;
75993;SDS011;64680;53.800;9.988;2023-07-31T14:35:09;0.93;;;0.43;;
75993;SDS011;64680;53.800;9.988;2023-07-31T14:37:42;1.00;;;0.40;;
75993;SDS011;64680;53.800;9.988;2023-07-31T14:40:10;0.93;;;0.52;;
75993;SDS011;64680;53.800;9.988;2023-07-31T14:42:37;0.68;;;0.30;;
75993;SDS011;64680;53.800;9.988;2023-07-31T14:45:07;0.57;;;0.38;;
75993;SDS011;64680;53.800;9.988;2023-07-31T14:47:33;1.48;;;0.32;;
75993;SDS011;64680;53.800;9.988;2023-07-31T14:50:01;2.08;;;0.50;;
75993;SDS011;64680;53.800;9.988;2023-07-31T14:52:27;1.50;;;0.40;;
75993;SDS011;64680;53.800;9.988;2023-07-31T14:54:52;0.85;;;0.45;;
75993;SDS011;64680;53.800;9.988;2023-07-31T14:57:18;1.60;;;0.35;;
75993;SDS011;64680;53.800;9.988;2023-07-31T14:59:45;1.25;;;0.30;;
75993;SDS011;64680;53.800;9.988;2023-07-31T15:02:11;1.27;;;0.30;;
75993;SDS011;64680;53.800;9.988;2023-07-31T15:04:37;1.60;;;0.45;;
75993;SDS011;64680;53.800;9.988;2023-07-31T15:07:03;1.42;;;0.50;;
75993;SDS011;64680;53.800;9.988;2023-07-31T15:09:28;0.55;;;0.20;;
75993;SDS011;64680;53.800;9.988;2023-07-31T15:11:55;0.93;;;0.40;;
75993;SDS011;64680;53.800;9.988;2023-07-31T15:14:21;1.02;;;0.30;;
75993;SDS011;64680;53.800;9.988;2023-07-31T15:16:47;1.20;;;0.50;;
75993;SDS011;64680;53.800;9.988;2023-07-31T15:19:13;1.30;;;0.40;;